Terminal Aerodrome Forecast
Issued by NWS

Current Version | Previous Version | Graphics & Text | Print | Product List | Glossary On
Versions: 1 2 3 4 5 6 7 8 9 10 11 12 13 14 15 16
000
FTUS41 KPBZ 210423 AAA
TAFHLG
TAF AMD
KHLG 210423Z 2104/2124 19009KT P6SM VCSH BKN025
     FM210500 19008KT 5SM -SHRA SCT015 BKN025
     FM210630 22005KT P6SM BKN020
     FM210900 25007KT P6SM OVC010
     FM211400 26007KT P6SM BKN025
     FM211800 27009KT P6SM SCT050
     FM212100 27010KT P6SM SCT250=

USA.gov is the U.S. government's official web portal to all federal, state and local government web resources and services.